Time;durP1;ratioP1;P1;durP2;ratioP2;P2;SDS_P1;SDS_P2;PMS_P1;PMS_P2;Temp;Humidity;BMP_temperature;BMP_pressure;BME280_temperature;BME280_humidity;BME280_pressure;Samples;Min_cycle;Max_cycle;Signal;HPM_P1;HPM_P2
2023/09/01 00:02:06;;;;;;;12.05;6.65;;;17.50;99.90;;;;;;4968096;28;20027;-82
2023/09/01 00:04:33;;;;;;;10.10;6.15;;;17.60;99.90;;;;;;4966277;28;20037;-82
2023/09/01 00:06:59;;;;;;;11.52;6.20;;;17.40;99.90;;;;;;4975405;28;20050;-82
2023/09/01 00:09:25;;;;;;;10.70;6.05;;;17.40;99.90;;;;;;4967509;28;20038;-81
2023/09/01 00:11:50;;;;;;;10.25;6.25;;;17.50;99.90;;;;;;4962806;28;20451;-82
2023/09/01 00:14:16;;;;;;;11.63;5.93;;;17.40;99.90;;;;;;4969884;28;20027;-82
2023/09/01 00:16:42;;;;;;;14.07;6.07;;;17.40;99.90;;;;;;4955127;29;20031;-82
2023/09/01 00:19:07;;;;;;;9.35;6.05;;;17.30;99.90;;;;;;4966432;28;20525;-82
2023/09/01 00:21:33;;;;;;;11.18;6.45;;;17.40;99.90;;;;;;4975013;28;20038;-82
2023/09/01 00:23:59;;;;;;;12.23;5.47;;;17.40;99.90;;;;;;4973027;28;20066;-82
2023/09/01 00:26:24;;;;;;;10.82;5.78;;;17.40;99.90;;;;;;4965443;28;20051;-82
2023/09/01 00:28:50;;;;;;;12.90;6.00;;;17.30;99.90;;;;;;4971834;28;20427;-82
2023/09/01 00:31:17;;;;;;;8.98;5.28;;;17.30;99.90;;;;;;4974340;28;20382;-82
2023/09/01 00:33:43;;;;;;;10.15;6.40;;;17.20;99.90;;;;;;4972695;28;20108;-82
2023/09/01 00:36:08;;;;;;;7.93;5.38;;;17.30;99.90;;;;;;4964832;28;20054;-82
2023/09/01 00:38:34;;;;;;;9.13;5.50;;;17.20;99.90;;;;;;4973083;28;20031;-82
2023/09/01 00:40:59;;;;;;;8.18;5.88;;;17.40;99.90;;;;;;4974909;28;20034;-82
2023/09/01 00:43:25;;;;;;;8.45;5.32;;;17.20;99.90;;;;;;4973173;28;20072;-82
2023/09/01 00:45:51;;;;;;;9.57;5.07;;;17.30;99.90;;;;;;4972691;28;20038;-82
2023/09/01 00:48:17;;;;;;;15.18;6.25;;;17.20;99.90;;;;;;4966068;28;20030;-82
2023/09/01 00:50:47;;;;;;;11.90;6.60;;;17.40;99.90;;;;;;4973026;28;20031;-82
2023/09/01 00:53:13;;;;;;;13.05;6.20;;;17.30;99.90;;;;;;4958388;28;20035;-81
2023/09/01 00:55:39;;;;;;;13.05;5.82;;;17.20;99.90;;;;;;4972570;28;20579;-83
2023/09/01 00:58:05;;;;;;;9.85;5.85;;;17.30;99.90;;;;;;4960647;28;20035;-85
2023/09/01 01:00:34;;;;;;;11.77;6.20;;;17.30;99.90;;;;;;4972917;28;20041;-82
2023/09/01 01:03:05;;;;;;;10.65;5.80;;;17.40;99.90;;;;;;4974052;28;20041;-81
2023/09/01 01:05:39;;;;;;;9.25;5.93;;;17.30;99.90;;;;;;4957303;28;20118;-81
2023/09/01 01:08:15;;;;;;;8.70;5.90;;;17.30;99.90;;;;;;4961643;28;20038;-82
2023/09/01 01:11:14;;;;;;;12.27;5.65;;;17.30;99.90;;;;;;4964968;28;20102;-82
2023/09/01 01:13:46;;;;;;;10.93;5.70;;;17.20;99.90;;;;;;4943256;28;20539;-82
2023/09/01 01:16:16;;;;;;;18.33;6.55;;;17.30;99.90;;;;;;4972269;28;20066;-82
2023/09/01 01:18:45;;;;;;;10.73;6.20;;;17.20;99.90;;;;;;4971992;28;20034;-82
2023/09/01 01:21:26;;;;;;;15.23;6.95;;;17.20;99.90;;;;;;4961008;28;20031;-82
2023/09/01 01:23:53;;;;;;;13.23;5.72;;;17.10;99.90;;;;;;4973822;28;20101;-81
2023/09/01 01:26:19;;;;;;;10.05;6.20;;;17.20;99.90;;;;;;4972217;28;20030;-80
2023/09/01 01:28:45;;;;;;;9.57;5.60;;;17.10;99.90;;;;;;4958185;28;20065;-83
2023/09/01 01:31:12;;;;;;;12.07;6.40;;;17.10;99.90;;;;;;4957502;28;20079;-82
2023/09/01 01:33:47;;;;;;;12.88;5.95;;;17.10;99.90;;;;;;4953666;29;20035;-82
2023/09/01 01:36:39;;;;;;;12.27;5.65;;;17.10;99.90;;;;;;4965318;28;20463;-82
2023/09/01 01:39:15;;;;;;;10.07;6.60;;;17.10;99.90;;;;;;4974120;28;20045;-82
2023/09/01 01:41:52;;;;;;;8.98;5.90;;;17.00;99.90;;;;;;4963778;28;20034;-82
2023/09/01 01:44:22;;;;;;;11.65;6.97;;;17.00;99.90;;;;;;4965576;28;20418;-82
2023/09/01 01:46:49;;;;;;;9.60;5.80;;;17.00;99.90;;;;;;4964880;28;20029;-81
2023/09/01 01:49:16;;;;;;;9.00;6.00;;;17.00;99.90;;;;;;4972930;28;20035;-83
2023/09/01 01:51:41;;;;;;;14.70;6.75;;;17.00;99.90;;;;;;4962900;28;20077;-81
2023/09/01 01:54:07;;;;;;;11.68;6.47;;;17.00;99.90;;;;;;4973070;28;20018;-82
2023/09/01 01:56:33;;;;;;;11.48;6.00;;;17.00;99.90;;;;;;4967225;28;20031;-82
2023/09/01 01:58:59;;;;;;;12.60;6.68;;;17.00;99.90;;;;;;4973323;28;20106;-82
2023/09/01 02:01:25;;;;;;;11.25;6.80;;;17.00;99.90;;;;;;4966879;28;20058;-82
2023/09/01 02:03:51;;;;;;;10.40;6.68;;;16.90;99.90;;;;;;4972732;28;20450;-81
2023/09/01 02:06:17;;;;;;;10.43;6.30;;;16.90;99.90;;;;;;4970696;28;20487;-82
2023/09/01 02:08:42;;;;;;;10.60;7.05;;;16.90;99.90;;;;;;4952962;29;20035;-82
2023/09/01 02:11:08;;;;;;;13.52;6.57;;;16.90;99.90;;;;;;4961190;28;20074;-81
2023/09/01 02:13:34;;;;;;;9.07;6.35;;;16.90;99.90;;;;;;4963585;28;20118;-82
2023/09/01 02:15:59;;;;;;;11.77;7.45;;;16.90;99.90;;;;;;4955322;28;20057;-82
2023/09/01 02:18:25;;;;;;;8.98;6.00;;;16.90;99.90;;;;;;4973253;28;20034;-82
2023/09/01 02:20:50;;;;;;;11.88;5.93;;;17.00;99.90;;;;;;4971198;28;20037;-84
2023/09/01 02:23:17;;;;;;;7.18;6.40;;;17.00;99.90;;;;;;4964547;28;20054;-81
2023/09/01 02:25:44;;;;;;;11.82;7.18;;;16.90;99.90;;;;;;4953359;29;20034;-81
2023/09/01 02:28:09;;;;;;;13.13;6.63;;;17.50;99.90;;;;;;4971003;28;20534;-82
2023/09/01 02:30:35;;;;;;;9.73;6.53;;;16.90;99.90;;;;;;4972499;28;20103;-83
2023/09/01 02:33:01;;;;;;;12.32;6.15;;;16.90;99.90;;;;;;4972050;28;20118;-81
2023/09/01 02:35:27;;;;;;;7.10;6.10;;;16.90;99.90;;;;;;4972148;28;20027;-82
2023/09/01 02:37:52;;;;;;;8.82;6.85;;;16.90;99.90;;;;;;4966362;28;20529;-83
2023/09/01 02:40:19;;;;;;;10.07;6.30;;;17.00;99.90;;;;;;4966634;28;20031;-81
2023/09/01 02:42:44;;;;;;;11.20;7.20;;;16.80;99.90;;;;;;4960712;28;20086;-82
2023/09/01 02:45:13;;;;;;;16.98;7.35;;;16.90;99.90;;;;;;4971366;28;20035;-82
2023/09/01 02:47:43;;;;;;;13.88;7.20;;;16.70;99.90;;;;;;4972135;28;20411;-81
2023/09/01 02:50:09;;;;;;;12.18;7.63;;;16.80;99.90;;;;;;4968905;28;20051;-82
2023/09/01 02:52:35;;;;;;;11.20;6.95;;;16.80;99.90;;;;;;4963782;28;20027;-81
2023/09/01 02:55:01;;;;;;;11.70;6.88;;;16.70;99.90;;;;;;4971211;28;20033;-83
2023/09/01 02:57:26;;;;;;;16.08;7.43;;;16.70;99.90;;;;;;4972272;28;20031;-83
2023/09/01 02:59:53;;;;;;;16.17;6.78;;;16.70;99.90;;;;;;4969742;28;20026;-83
2023/09/01 03:02:19;;;;;;;14.00;7.97;;;16.70;99.90;;;;;;4953505;29;20082;-83
2023/09/01 03:04:47;;;;;;;10.32;6.82;;;17.10;99.90;;;;;;4969016;28;20030;-81
2023/09/01 03:07:12;;;;;;;13.00;7.20;;;16.70;99.90;;;;;;4972667;28;20023;-83
2023/09/01 03:09:38;;;;;;;14.55;7.00;;;16.70;99.90;;;;;;4970559;28;20027;-83
2023/09/01 03:12:04;;;;;;;13.73;7.35;;;17.20;99.90;;;;;;4958530;28;20034;-83
2023/09/01 03:14:30;;;;;;;10.30;6.65;;;16.70;99.90;;;;;;4965070;28;20035;-83
2023/09/01 03:16:56;;;;;;;10.38;6.53;;;16.70;99.90;;;;;;4972218;28;20029;-83
2023/09/01 03:19:21;;;;;;;11.93;7.00;;;16.70;99.90;;;;;;4971015;28;20031;-82
2023/09/01 03:21:47;;;;;;;11.27;6.95;;;16.70;99.90;;;;;;4967373;28;20030;-84
2023/09/01 03:24:13;;;;;;;8.85;6.60;;;16.70;99.90;;;;;;4954707;28;20523;-84
2023/09/01 03:26:38;;;;;;;12.55;7.53;;;16.70;99.90;;;;;;4970239;28;20534;-83
2023/09/01 03:29:04;;;;;;;10.00;6.88;;;16.60;99.90;;;;;;4968483;28;20067;-83
2023/09/01 03:31:31;;;;;;;13.35;7.13;;;16.60;99.90;;;;;;4970347;28;20031;-82
2023/09/01 03:33:57;;;;;;;10.85;7.05;;;16.60;99.90;;;;;;4953253;28;20043;-83
2023/09/01 03:36:23;;;;;;;14.48;7.38;;;16.60;99.90;;;;;;4965352;28;20019;-83
2023/09/01 03:38:48;;;;;;;14.25;7.57;;;16.80;99.90;;;;;;4961465;28;20053;-83
2023/09/01 03:41:14;;;;;;;11.55;7.10;;;16.60;99.90;;;;;;4963737;28;20027;-83
2023/09/01 03:43:39;;;;;;;11.32;6.95;;;16.60;99.90;;;;;;4969387;28;20038;-83
2023/09/01 03:46:05;;;;;;;10.90;7.25;;;16.60;99.90;;;;;;4974819;28;20023;-83
2023/09/01 03:48:31;;;;;;;14.27;7.22;;;16.80;99.90;;;;;;4956266;28;20392;-82
2023/09/01 03:51:15;;;;;;;9.15;7.45;;;16.60;99.90;;;;;;4970197;28;20494;-83
2023/09/01 03:53:41;;;;;;;15.30;7.40;;;16.50;99.90;;;;;;4973461;28;20117;-83
2023/09/01 03:56:13;;;;;;;12.43;7.70;;;16.50;99.90;;;;;;4968071;28;20507;-83
2023/09/01 03:58:39;;;;;;;13.95;6.65;;;16.60;99.90;;;;;;4969814;28;20458;-83
2023/09/01 04:01:08;;;;;;;10.18;6.82;;;16.60;99.90;;;;;;4968099;28;20454;-83
2023/09/01 04:03:37;;;;;;;9.90;7.18;;;16.50;99.90;;;;;;4969479;28;20499;-83
2023/09/01 04:06:05;;;;;;;9.55;7.25;;;16.60;99.90;;;;;;4974328;28;20026;-83
2023/09/01 04:08:32;;;;;;;12.80;7.38;;;16.50;99.90;;;;;;4963027;28;20045;-82
2023/09/01 04:10:57;;;;;;;15.23;7.57;;;16.60;99.90;;;;;;4961894;28;20023;-83
2023/09/01 04:13:23;;;;;;;9.38;6.97;;;16.60;99.90;;;;;;4968586;28;20093;-83
2023/09/01 04:15:49;;;;;;;15.60;7.10;;;16.60;99.90;;;;;;4964731;28;20036;-83
2023/09/01 04:18:15;;;;;;;10.88;7.20;;;17.20;99.90;;;;;;4975122;28;20041;-82
2023/09/01 04:20:49;;;;;;;18.40;7.82;;;16.50;99.90;;;;;;4972978;28;20015;-83
2023/09/01 04:23:15;;;;;;;13.70;7.75;;;16.50;99.90;;;;;;4962249;28;20043;-83
2023/09/01 04:25:45;;;;;;;13.25;7.78;;;16.60;99.90;;;;;;4966466;28;20391;-83
2023/09/01 04:28:12;;;;;;;13.13;7.22;;;16.50;99.90;;;;;;4973549;28;20088;-85
2023/09/01 04:30:38;;;;;;;10.48;7.85;;;16.50;99.90;;;;;;4961955;28;20027;-84
2023/09/01 04:33:07;;;;;;;11.18;6.78;;;16.70;99.90;;;;;;4974711;28;20035;-83
2023/09/01 04:35:33;;;;;;;11.40;7.63;;;16.50;99.90;;;;;;4974069;28;20034;-83
2023/09/01 04:37:59;;;;;;;11.13;7.18;;;16.50;99.90;;;;;;4968158;28;20471;-83
2023/09/01 04:40:26;;;;;;;16.40;8.02;;;16.50;99.90;;;;;;4961668;28;20079;-83
2023/09/01 04:42:52;;;;;;;12.27;7.25;;;16.50;99.90;;;;;;4955065;28;20027;-83
2023/09/01 04:45:18;;;;;;;12.85;7.47;;;16.50;99.90;;;;;;4955628;29;20091;-83
2023/09/01 04:47:43;;;;;;;12.18;7.65;;;16.50;99.90;;;;;;4962141;28;20085;-83
2023/09/01 04:50:09;;;;;;;11.93;7.63;;;16.40;99.90;;;;;;4961953;28;20031;-82
2023/09/01 04:52:35;;;;;;;9.57;7.07;;;16.40;99.90;;;;;;4955329;29;20042;-82
2023/09/01 04:55:01;;;;;;;15.57;7.45;;;16.40;99.90;;;;;;4955211;29;20030;-83
2023/09/01 04:57:27;;;;;;;10.73;7.35;;;16.40;99.90;;;;;;4968356;28;20054;-83
2023/09/01 04:59:53;;;;;;;11.23;7.75;;;16.40;99.90;;;;;;4974522;28;20019;-83
2023/09/01 05:02:18;;;;;;;10.43;6.82;;;16.70;99.90;;;;;;4964379;28;20026;-83
2023/09/01 05:04:44;;;;;;;9.70;7.15;;;16.40;99.90;;;;;;4960321;28;20126;-83
2023/09/01 05:07:10;;;;;;;9.05;6.63;;;16.40;99.90;;;;;;4961254;28;20217;-83
2023/09/01 05:09:35;;;;;;;13.27;7.80;;;16.30;99.90;;;;;;4963779;28;20113;-83
2023/09/01 05:12:01;;;;;;;10.90;7.65;;;16.40;99.90;;;;;;4973874;28;20031;-83
2023/09/01 05:14:27;;;;;;;10.15;6.97;;;16.40;99.90;;;;;;4966497;28;20035;-83
2023/09/01 05:16:52;;;;;;;16.13;7.38;;;16.40;99.90;;;;;;4956731;28;20498;-82
2023/09/01 05:19:18;;;;;;;10.85;7.32;;;16.40;99.90;;;;;;4972594;28;20018;-83
2023/09/01 05:21:43;;;;;;;11.70;6.55;;;16.70;99.90;;;;;;4972808;28;20054;-83
2023/09/01 05:24:09;;;;;;;13.05;6.93;;;16.40;99.90;;;;;;4973124;28;20503;-83
2023/09/01 05:26:35;;;;;;;8.88;6.65;;;16.40;99.90;;;;;;4961274;28;20027;-82
2023/09/01 05:29:00;;;;;;;9.32;7.18;;;16.40;99.90;;;;;;4954733;29;20031;-82
2023/09/01 05:31:26;;;;;;;14.73;6.60;;;16.40;99.90;;;;;;4964260;28;20062;-83
2023/09/01 05:33:52;;;;;;;10.52;7.53;;;16.30;99.90;;;;;;4972542;28;20053;-83
2023/09/01 05:36:17;;;;;;;13.35;7.35;;;16.30;99.90;;;;;;4972977;28;20459;-83
2023/09/01 05:38:43;;;;;;;12.77;6.82;;;16.30;99.90;;;;;;4973431;28;20122;-83
2023/09/01 05:41:10;;;;;;;10.00;6.88;;;16.30;99.90;;;;;;4967879;28;20376;-82
2023/09/01 05:43:36;;;;;;;10.43;6.45;;;16.30;99.90;;;;;;4973034;28;20041;-83
2023/09/01 05:46:02;;;;;;;9.68;6.05;;;16.30;99.90;;;;;;4970100;28;20106;-82
2023/09/01 05:48:27;;;;;;;9.88;5.97;;;16.30;99.90;;;;;;4970444;28;20026;-83
2023/09/01 05:50:53;;;;;;;10.30;6.70;;;16.40;99.90;;;;;;4972916;28;20398;-83
2023/09/01 05:53:19;;;;;;;11.40;6.70;;;16.40;99.90;;;;;;4971480;28;20626;-82
2023/09/01 05:55:45;;;;;;;14.00;6.65;;;16.50;99.90;;;;;;4971329;28;20122;-83
2023/09/01 05:58:10;;;;;;;10.00;7.05;;;16.50;99.90;;;;;;4972604;28;20034;-82
2023/09/01 06:00:36;;;;;;;8.65;7.18;;;16.50;99.90;;;;;;4968109;28;20026;-82
2023/09/01 06:03:03;;;;;;;9.05;6.93;;;16.40;99.90;;;;;;4972677;28;20501;-83
2023/09/01 06:05:29;;;;;;;13.07;7.80;;;16.50;99.90;;;;;;4971638;28;20027;-82
2023/09/01 06:07:55;;;;;;;12.73;7.70;;;16.50;99.90;;;;;;4971912;28;20356;-82
2023/09/01 06:10:20;;;;;;;11.13;7.45;;;16.50;99.90;;;;;;4971817;28;20022;-83
2023/09/01 06:12:46;;;;;;;13.27;8.10;;;16.50;99.90;;;;;;4972531;28;20077;-82
2023/09/01 06:15:12;;;;;;;7.72;6.78;;;16.50;99.90;;;;;;4968380;28;20439;-83
2023/09/01 06:17:37;;;;;;;14.43;7.60;;;16.50;99.90;;;;;;4971834;28;20023;-83
2023/09/01 06:20:04;;;;;;;26.10;6.75;;;16.50;99.90;;;;;;4971414;28;20031;-82
2023/09/01 06:22:30;;;;;;;8.43;7.03;;;16.60;99.90;;;;;;4964575;28;20530;-84
2023/09/01 06:24:56;;;;;;;14.32;7.75;;;16.60;99.90;;;;;;4959128;28;20055;-84
2023/09/01 06:27:21;;;;;;;9.15;7.05;;;16.60;99.90;;;;;;4957338;28;20022;-83
2023/09/01 06:29:47;;;;;;;11.88;6.95;;;16.60;99.90;;;;;;4951911;28;20384;-84
2023/09/01 06:32:13;;;;;;;11.07;7.47;;;16.60;99.90;;;;;;4969144;28;20039;-84
2023/09/01 06:34:39;;;;;;;13.48;7.72;;;16.60;99.90;;;;;;4969745;28;20039;-84
2023/09/01 06:37:04;;;;;;;11.07;7.05;;;16.60;99.90;;;;;;4963780;28;20039;-84
2023/09/01 06:39:30;;;;;;;10.75;7.30;;;16.60;99.90;;;;;;4962017;28;20023;-84
2023/09/01 06:41:56;;;;;;;14.35;7.03;;;16.60;99.90;;;;;;4967068;28;20039;-84
2023/09/01 06:44:22;;;;;;;13.88;8.02;;;16.60;99.90;;;;;;4966958;28;20043;-84
2023/09/01 06:46:48;;;;;;;13.95;8.13;;;16.60;99.90;;;;;;4965559;28;20543;-84
2023/09/01 06:49:15;;;;;;;8.80;7.00;;;16.60;99.90;;;;;;4958068;28;20039;-84
2023/09/01 06:51:41;;;;;;;11.10;7.13;;;16.60;99.90;;;;;;4963206;28;20023;-85
2023/09/01 06:54:06;;;;;;;14.25;8.23;;;16.70;99.90;;;;;;4952680;28;20031;-84
2023/09/01 06:56:32;;;;;;;9.18;7.15;;;16.60;99.90;;;;;;4959837;28;20040;-83
2023/09/01 06:58:57;;;;;;;13.80;7.22;;;16.60;99.90;;;;;;4958684;28;20027;-84
2023/09/01 07:01:23;;;;;;;13.10;7.55;;;16.60;99.90;;;;;;4966578;28;20042;-82
2023/09/01 07:03:49;;;;;;;11.98;7.35;;;16.60;99.90;;;;;;4966228;28;20166;-82
2023/09/01 07:06:14;;;;;;;10.18;7.57;;;16.60;99.90;;;;;;4961044;28;20368;-82
2023/09/01 07:08:40;;;;;;;14.32;6.97;;;16.70;99.90;;;;;;4964458;28;20039;-82
2023/09/01 07:11:10;;;;;;;13.00;7.35;;;16.60;99.90;;;;;;4963677;28;20047;-83
2023/09/01 07:13:36;;;;;;;13.70;7.80;;;16.70;99.90;;;;;;4970200;28;20501;-81
2023/09/01 07:16:01;;;;;;;14.00;7.97;;;16.70;99.90;;;;;;4967393;28;20026;-81
2023/09/01 07:18:28;;;;;;;8.20;7.40;;;16.70;99.90;;;;;;4969446;28;20042;-82
2023/09/01 07:20:58;;;;;;;8.50;6.97;;;16.70;99.90;;;;;;4966767;28;20038;-83
2023/09/01 07:23:24;;;;;;;11.07;7.32;;;16.70;99.90;;;;;;4963661;28;20030;-82
2023/09/01 07:25:49;;;;;;;10.18;7.28;;;16.80;99.90;;;;;;4963130;28;20053;-82
2023/09/01 07:28:15;;;;;;;13.35;8.50;;;16.80;99.90;;;;;;4969171;28;20027;-82
2023/09/01 07:30:42;;;;;;;14.45;8.23;;;16.70;99.90;;;;;;4965897;28;20059;-83
2023/09/01 07:33:07;;;;;;;8.93;8.00;;;16.70;99.90;;;;;;4968491;28;20431;-82
2023/09/01 07:35:33;;;;;;;11.93;7.90;;;16.70;99.90;;;;;;4967311;28;20034;-82
2023/09/01 07:37:59;;;;;;;13.80;7.82;;;16.80;99.90;;;;;;4964687;28;20070;-83
2023/09/01 07:40:24;;;;;;;11.63;8.52;;;16.80;99.90;;;;;;4961209;28;20476;-83
2023/09/01 07:42:50;;;;;;;13.95;9.40;;;16.80;99.90;;;;;;4967210;28;20039;-82
2023/09/01 07:45:16;;;;;;;12.07;8.30;;;16.80;99.90;;;;;;4958857;28;20035;-81
2023/09/01 07:47:42;;;;;;;9.70;8.15;;;16.80;99.90;;;;;;4965070;28;20114;-81
2023/09/01 07:50:09;;;;;;;9.43;8.23;;;16.80;99.90;;;;;;4964572;28;20057;-84
2023/09/01 07:52:35;;;;;;;12.40;8.85;;;16.80;99.90;;;;;;4966118;28;20050;-84
2023/09/01 07:55:00;;;;;;;11.00;8.30;;;16.70;99.90;;;;;;4966043;28;20023;-84
2023/09/01 07:57:26;;;;;;;12.70;8.50;;;16.80;99.90;;;;;;4965245;28;20114;-87
2023/09/01 07:59:52;;;;;;;12.20;8.50;;;16.80;99.90;;;;;;4965200;28;20135;-85
2023/09/01 08:02:17;;;;;;;9.27;7.80;;;16.80;99.90;;;;;;4968927;28;20027;-85
2023/09/01 08:04:43;;;;;;;12.30;9.35;;;16.80;99.90;;;;;;4968406;28;20447;-84
2023/09/01 08:07:09;;;;;;;11.10;7.97;;;16.90;99.90;;;;;;4965028;28;20058;-84
2023/09/01 08:09:34;;;;;;;11.65;8.48;;;16.80;99.90;;;;;;4962700;28;20031;-84
2023/09/01 08:12:00;;;;;;;10.45;7.88;;;16.90;99.90;;;;;;4955323;28;20062;-86
2023/09/01 08:14:26;;;;;;;14.88;8.63;;;16.80;99.90;;;;;;4966177;28;20534;-87
2023/09/01 08:16:51;;;;;;;11.57;7.97;;;16.90;99.90;;;;;;4969667;28;20046;-87
2023/09/01 08:19:17;;;;;;;10.98;8.95;;;16.90;99.90;;;;;;4956667;28;20552;-87
2023/09/01 08:21:42;;;;;;;11.02;8.93;;;17.70;99.90;;;;;;4961864;28;20436;-82
2023/09/01 08:24:08;;;;;;;9.13;8.27;;;17.20;99.90;;;;;;4966645;28;20050;-90
2023/09/01 08:26:34;;;;;;;11.70;9.10;;;16.90;99.90;;;;;;4981919;28;20027;-89
2023/09/01 08:28:59;;;;;;;13.73;10.02;;;16.90;99.90;;;;;;4965844;28;20428;-86
2023/09/01 08:31:25;;;;;;;10.48;9.50;;;16.90;99.90;;;;;;4962380;28;20026;-83
2023/09/01 08:33:52;;;;;;;15.43;9.65;;;17.30;99.90;;;;;;4967952;28;20031;-86
2023/09/01 08:36:17;;;;;;;14.57;9.93;;;17.20;99.90;;;;;;4964115;28;20491;-88
2023/09/01 08:38:43;;;;;;;12.57;9.07;;;17.00;99.90;;;;;;4974960;28;20046;-88
2023/09/01 08:41:09;;;;;;;12.52;9.70;;;17.00;99.90;;;;;;4974382;28;20023;-88
2023/09/01 08:43:38;;;;;;;11.40;10.05;;;17.00;99.90;;;;;;4964208;28;20578;-88
2023/09/01 08:46:05;;;;;;;11.32;9.02;;;17.10;99.90;;;;;;4974478;28;20105;-82
2023/09/01 08:48:32;;;;;;;11.07;9.60;;;17.10;99.90;;;;;;4972912;28;20038;-82
2023/09/01 08:50:58;;;;;;;10.10;9.10;;;17.00;99.90;;;;;;4973712;28;20105;-82
2023/09/01 08:53:25;;;;;;;13.40;9.65;;;17.00;99.90;;;;;;4968026;28;20039;-82
2023/09/01 08:55:52;;;;;;;12.18;9.40;;;17.10;99.90;;;;;;4966077;28;20030;-82
2023/09/01 08:58:18;;;;;;;16.30;9.55;;;17.00;99.90;;;;;;4974031;28;20027;-83
2023/09/01 09:00:44;;;;;;;10.30;8.98;;;17.50;99.90;;;;;;4972314;28;20027;-82
2023/09/01 09:03:13;;;;;;;11.77;9.20;;;17.00;99.90;;;;;;4969967;28;20034;-80
2023/09/01 09:05:39;;;;;;;15.05;9.70;;;17.10;99.90;;;;;;4972090;28;20118;-83
2023/09/01 09:08:07;;;;;;;10.07;8.95;;;17.00;99.90;;;;;;4969889;28;20031;-83
2023/09/01 09:10:41;;;;;;;14.70;9.30;;;17.00;99.90;;;;;;4959285;28;20030;-83
2023/09/01 09:13:27;;;;;;;13.70;10.05;;;17.10;99.90;;;;;;4966391;28;20070;-85
2023/09/01 09:16:22;;;;;;;12.48;8.90;;;17.10;99.90;;;;;;4971019;28;20053;-83
2023/09/01 09:18:48;;;;;;;9.60;8.30;;;17.10;99.90;;;;;;4939698;29;20031;-86
2023/09/01 09:21:30;;;;;;;10.63;8.70;;;17.10;99.90;;;;;;4954061;29;20456;-80
2023/09/01 09:23:58;;;;;;;11.38;8.68;;;18.00;99.90;;;;;;4972134;28;20058;-86
2023/09/01 09:26:29;;;;;;;14.15;8.75;;;17.20;99.90;;;;;;4965984;28;20078;-84
2023/09/01 09:29:01;;;;;;;9.52;8.65;;;17.20;99.90;;;;;;4972228;28;20097;-83
2023/09/01 09:31:33;;;;;;;10.68;9.40;;;17.20;99.90;;;;;;4971137;28;20041;-83
2023/09/01 09:34:11;;;;;;;8.48;7.72;;;17.20;99.90;;;;;;4970787;28;20038;-83
2023/09/01 09:36:37;;;;;;;11.73;9.38;;;17.20;99.90;;;;;;4964724;28;20034;-83
2023/09/01 09:39:06;;;;;;;10.52;9.52;;;17.20;99.90;;;;;;4963592;28;20030;-84
2023/09/01 09:41:48;;;;;;;11.02;9.50;;;17.30;99.90;;;;;;4961983;28;20030;-83
2023/09/01 09:44:31;;;;;;;15.02;10.27;;;17.30;99.90;;;;;;4956961;28;20134;-82
2023/09/01 09:46:57;;;;;;;11.13;9.98;;;17.30;99.90;;;;;;4972946;28;20113;-83
2023/09/01 09:49:24;;;;;;;10.68;9.77;;;17.30;99.90;;;;;;4973561;28;20117;-84
2023/09/01 09:51:51;;;;;;;12.05;10.93;;;17.30;99.90;;;;;;4973020;28;20059;-83
2023/09/01 09:54:22;;;;;;;11.70;10.57;;;17.30;99.90;;;;;;4971076;28;20046;-83
2023/09/01 09:56:50;;;;;;;15.80;9.88;;;17.30;99.90;;;;;;4972329;28;20106;-83
2023/09/01 09:59:29;;;;;;;12.02;9.93;;;17.30;99.90;;;;;;4970194;28;20023;-83
2023/09/01 10:01:58;;;;;;;11.93;10.73;;;17.30;99.90;;;;;;4972263;28;20023;-83
2023/09/01 10:04:24;;;;;;;13.35;11.93;;;17.30;99.90;;;;;;4970899;28;20462;-83
2023/09/01 10:06:50;;;;;;;17.13;11.73;;;17.30;99.90;;;;;;4971999;28;20383;-85
2023/09/01 10:09:17;;;;;;;13.38;11.98;;;17.30;99.90;;;;;;4971897;28;20027;-83
2023/09/01 10:11:45;;;;;;;16.75;12.00;;;17.30;99.90;;;;;;4969417;28;20023;-83
2023/09/01 10:14:13;;;;;;;14.88;10.98;;;17.40;99.90;;;;;;4972142;28;20023;-83
2023/09/01 10:16:40;;;;;;;17.98;12.18;;;17.40;99.90;;;;;;4970291;28;20498;-83
2023/09/01 10:19:09;;;;;;;15.88;12.32;;;17.40;99.90;;;;;;4953939;29;20484;-84
2023/09/01 10:21:35;;;;;;;14.63;11.73;;;17.40;99.90;;;;;;4964554;28;20038;-82
2023/09/01 10:24:02;;;;;;;13.23;10.70;;;17.40;99.90;;;;;;4966864;28;20406;-83
2023/09/01 10:26:30;;;;;;;15.57;11.88;;;17.50;99.90;;;;;;4948847;28;20373;-84
2023/09/01 10:29:01;;;;;;;16.05;11.45;;;17.50;99.90;;;;;;4956487;28;20041;-83
2023/09/01 10:31:28;;;;;;;14.20;11.02;;;17.50;99.90;;;;;;4946440;29;20035;-84
2023/09/01 10:34:10;;;;;;;14.77;10.60;;;17.50;99.90;;;;;;4932826;29;20369;-84
2023/09/01 10:36:37;;;;;;;14.95;10.57;;;17.60;99.90;;;;;;4936035;29;20050;-84
2023/09/01 10:39:29;;;;;;;10.77;9.73;;;17.60;99.90;;;;;;4951946;29;20387;-84
2023/09/01 10:42:00;;;;;;;14.25;11.60;;;17.60;99.90;;;;;;4941188;29;20043;-84
2023/09/01 10:44:44;;;;;;;11.73;10.60;;;17.50;99.90;;;;;;4936424;29;20042;-84
2023/09/01 10:47:31;;;;;;;11.98;9.68;;;17.70;99.90;;;;;;4952233;28;20039;-84
2023/09/01 10:50:01;;;;;;;10.15;9.15;;;17.60;99.90;;;;;;4939933;29;20480;-84
2023/09/01 10:52:28;;;;;;;;;;;17.70;99.90;;;;;;4955046;28;20035;-85
2023/09/01 10:54:59;;;;;;;10.63;9.60;;;17.70;99.90;;;;;;4958268;29;19906;-82
2023/09/01 10:57:42;;;;;;;10.45;9.55;;;17.70;99.90;;;;;;4956626;28;20024;-87
2023/09/01 11:00:30;;;;;;;9.60;8.70;;;17.70;99.90;;;;;;4957577;28;20547;-86
2023/09/01 11:03:33;;;;;;;13.95;9.75;;;17.80;99.90;;;;;;4949220;28;20046;-85
2023/09/01 11:06:02;;;;;;;13.75;9.65;;;17.80;99.90;;;;;;4901789;29;20039;-85
2023/09/01 11:08:28;;;;;;;11.05;9.85;;;17.90;99.90;;;;;;4941113;29;20042;-83
2023/09/01 11:11:00;;;;;;;12.57;10.50;;;17.80;99.90;;;;;;4949868;28;20035;-84
2023/09/01 11:13:26;;;;;;;10.15;9.25;;;17.80;99.90;;;;;;4960496;28;20115;-87
2023/09/01 11:15:52;;;;;;;10.32;9.35;;;17.90;99.90;;;;;;4963447;28;20074;-87
2023/09/01 11:18:22;;;;;;;10.88;9.77;;;18.20;99.90;;;;;;4964616;28;20038;-84
2023/09/01 11:20:54;;;;;;;10.52;9.63;;;17.80;99.90;;;;;;4969063;28;20097;-86
2023/09/01 11:23:23;;;;;;;11.73;10.55;;;17.90;99.90;;;;;;4967443;28;20034;-86
2023/09/01 11:25:56;;;;;;;11.00;9.90;;;17.90;99.90;;;;;;4955138;28;20118;-86
2023/09/01 11:28:22;;;;;;;11.40;9.93;;;17.90;99.90;;;;;;4964205;28;20062;-86
2023/09/01 11:31:01;;;;;;;11.40;9.65;;;17.90;99.90;;;;;;4952961;28;20449;-86
2023/09/01 11:33:27;;;;;;;9.73;8.93;;;17.90;99.90;;;;;;4956331;29;20042;-84
2023/09/01 11:36:11;;;;;;;10.88;9.88;;;18.00;99.90;;;;;;4950601;29;20027;-85
2023/09/01 11:38:37;;;;;;;11.13;10.02;;;18.10;99.90;;;;;;4939264;29;20391;-84
2023/09/01 11:41:05;;;;;;;20.52;9.80;;;18.00;99.90;;;;;;4947229;29;20060;-84
2023/09/01 11:43:32;;;;;;;13.35;10.98;;;18.00;99.90;;;;;;4943367;29;20065;-84
2023/09/01 11:45:58;;;;;;;10.40;9.30;;;18.00;99.90;;;;;;4939162;29;20079;-84
2023/09/01 11:48:24;;;;;;;10.27;9.38;;;18.00;99.90;;;;;;4950231;29;20035;-84
2023/09/01 11:50:53;;;;;;;10.13;8.25;;;18.10;99.90;;;;;;4941175;29;20039;-84
2023/09/01 11:53:30;;;;;;;10.02;9.07;;;18.10;99.90;;;;;;4950627;29;20027;-83
2023/09/01 11:56:01;;;;;;;9.52;8.70;;;18.10;99.90;;;;;;4939665;29;20546;-84
2023/09/01 11:58:45;;;;;;;9.95;9.05;;;18.10;99.90;;;;;;4954213;29;20027;-83
2023/09/01 12:01:15;;;;;;;9.80;8.93;;;18.10;99.90;;;;;;4953817;29;20031;-83
2023/09/01 12:03:51;;;;;;;10.35;9.30;;;18.20;99.90;;;;;;4952503;29;20067;-83
2023/09/01 12:06:20;;;;;;;9.80;8.88;;;18.20;99.90;;;;;;4952350;29;20062;-84
2023/09/01 12:08:47;;;;;;;10.18;9.20;;;18.20;99.90;;;;;;4949601;29;20087;-84
2023/09/01 12:11:13;;;;;;;14.13;10.38;;;18.30;99.90;;;;;;4942374;29;20039;-84
2023/09/01 12:13:39;;;;;;;13.32;10.10;;;18.30;99.90;;;;;;4947182;29;20447;-84
2023/09/01 12:16:05;;;;;;;13.23;11.23;;;18.30;99.90;;;;;;4936773;29;20458;-84
2023/09/01 12:18:38;;;;;;;11.07;9.48;;;18.40;99.90;;;;;;4941682;29;20150;-83
2023/09/01 12:21:05;;;;;;;9.88;8.90;;;18.40;99.90;;;;;;4950789;29;20023;-84
2023/09/01 12:23:33;;;;;;;10.30;9.27;;;18.40;99.90;;;;;;4958082;28;20057;-83
2023/09/01 12:26:01;;;;;;;10.55;9.57;;;18.40;99.90;;;;;;4968240;28;20035;-83
2023/09/01 12:28:28;;;;;;;10.13;9.32;;;18.50;99.90;;;;;;4969948;28;20053;-84
2023/09/01 12:30:57;;;;;;;10.50;9.50;;;18.40;99.90;;;;;;4975189;28;20124;-83
2023/09/01 12:33:23;;;;;;;9.85;9.05;;;18.50;99.90;;;;;;4968875;28;20035;-83
2023/09/01 12:35:50;;;;;;;11.30;9.98;;;18.40;99.90;;;;;;4961713;28;20524;-84
2023/09/01 12:38:16;;;;;;;10.48;9.48;;;18.50;99.90;;;;;;4957289;28;20138;-85
2023/09/01 12:40:42;;;;;;;10.75;9.57;;;18.50;99.90;;;;;;4966205;28;20034;-84
2023/09/01 12:43:07;;;;;;;10.63;9.63;;;18.50;99.90;;;;;;4971048;28;20047;-84